createdAt,value
2023-03-12T00:00:44.484Z,22.51
2023-03-12T00:01:44.484Z,22.51
2023-03-12T00:02:44.538Z,22.51
2023-03-12T00:03:44.540Z,22.50
2023-03-12T00:04:44.453Z,22.50
2023-03-12T00:05:44.444Z,22.50
2023-03-12T00:06:44.458Z,22.50
2023-03-12T00:54:49.913Z,22.06
2023-03-12T00:55:50.820Z,22.28
2023-03-12T00:56:50.819Z,22.33
2023-03-12T00:57:50.798Z,22.38
2023-03-12T00:58:49.829Z,22.41
2023-03-12T00:59:50.782Z,22.43
2023-03-12T01:00:50.830Z,22.44
2023-03-12T01:01:50.765Z,22.44
2023-03-12T01:02:50.792Z,22.45
2023-03-12T01:03:50.781Z,22.47
2023-03-12T01:04:50.749Z,22.47
2023-03-12T01:05:50.729Z,22.47
2023-03-12T01:06:50.749Z,22.48
2023-03-12T01:07:50.710Z,22.48
2023-03-12T01:08:50.702Z,22.47
2023-03-12T01:09:50.766Z,22.48
2023-03-12T01:10:50.723Z,22.48
2023-03-12T01:11:50.698Z,22.49
2023-03-12T01:12:50.670Z,22.48
2023-03-12T01:13:50.670Z,22.48
2023-03-12T01:14:50.650Z,22.48
2023-03-12T01:15:50.635Z,22.48
2023-03-12T01:16:52.455Z,22.48
2023-03-12T01:17:50.619Z,22.48
2023-03-12T01:18:50.617Z,22.48
2023-03-12T01:19:50.611Z,22.48
2023-03-12T01:20:50.592Z,22.47
2023-03-12T01:21:50.585Z,22.49
2023-03-12T01:22:50.581Z,22.48
2023-03-12T01:23:50.564Z,22.49
2023-03-12T01:24:50.561Z,22.48
2023-03-12T01:25:50.547Z,22.48
2023-03-12T01:26:50.567Z,22.48
2023-03-12T01:27:50.531Z,22.47
2023-03-12T01:28:50.524Z,22.48
2023-03-12T01:29:50.515Z,22.48
2023-03-12T01:30:50.503Z,22.48
2023-03-12T01:31:50.512Z,22.48
2023-03-12T01:32:50.549Z,22.48
2023-03-12T01:33:50.470Z,22.48
2023-03-12T01:34:50.467Z,22.48
2023-03-12T01:35:50.705Z,22.48
2023-03-12T01:36:50.458Z,22.48
2023-03-12T01:37:50.438Z,22.47
2023-03-12T01:38:50.427Z,22.48
2023-03-12T01:39:50.414Z,22.47
2023-03-12T01:40:50.422Z,22.47
2023-03-12T01:41:50.408Z,22.48
2023-03-12T01:42:50.429Z,22.47
2023-03-12T01:43:50.381Z,22.47
2023-03-12T01:44:50.370Z,22.46
2023-03-12T01:45:50.423Z,22.47
2023-03-12T01:46:50.356Z,22.47
2023-03-12T01:47:50.342Z,22.46
2023-03-12T01:48:50.350Z,22.46
2023-03-12T01:49:50.326Z,22.47
2023-03-12T01:50:50.321Z,22.47
2023-03-12T01:51:50.306Z,22.47
2023-03-12T01:52:50.300Z,22.47
2023-03-12T01:53:50.293Z,22.47
2023-03-12T01:54:50.277Z,22.46
2023-03-12T01:55:50.271Z,22.46
2023-03-12T01:56:50.257Z,22.46
2023-03-12T01:57:50.264Z,22.46
2023-03-12T01:58:50.288Z,22.46
2023-03-12T01:59:50.229Z,22.46
2023-03-12T02:00:50.266Z,22.46
2023-03-12T02:01:50.210Z,22.46
2023-03-12T02:02:50.202Z,22.46
2023-03-12T02:03:50.215Z,22.46
2023-03-12T02:04:50.183Z,22.46
2023-03-12T02:05:50.179Z,22.46
2023-03-12T02:06:50.165Z,22.45
2023-03-12T02:07:50.153Z,22.46
2023-03-12T02:08:50.162Z,22.46
2023-03-12T02:09:50.141Z,22.45
2023-03-12T02:10:50.135Z,22.46
2023-03-12T02:11:50.803Z,22.46
2023-03-12T02:12:50.116Z,22.44
2023-03-12T02:13:50.109Z,22.45
2023-03-12T02:14:50.144Z,22.46
2023-03-12T02:15:50.093Z,22.46
2023-03-12T02:16:50.294Z,22.45
2023-03-12T02:17:50.081Z,22.46
2023-03-12T02:18:50.060Z,22.46
2023-03-12T02:19:50.057Z,22.45
2023-03-12T02:20:50.044Z,22.45
2023-03-12T02:21:50.031Z,22.45
2023-03-12T02:22:50.023Z,22.45
2023-03-12T02:23:50.012Z,22.45
2023-03-12T02:24:50.001Z,22.46
2023-03-12T02:25:50.001Z,22.45
2023-03-12T02:26:49.995Z,22.45
2023-03-12T02:27:49.977Z,22.45
2023-03-12T02:28:49.968Z,22.45
2023-03-12T02:29:49.964Z,22.46
2023-03-12T02:30:49.975Z,22.45
2023-03-12T02:31:50.039Z,22.45
2023-03-12T02:32:49.989Z,22.45
2023-03-12T02:33:49.927Z,22.45
2023-03-12T02:34:49.920Z,22.46
2023-03-12T02:35:49.927Z,22.45
2023-03-12T02:36:49.897Z,22.45
2023-03-12T02:37:49.888Z,22.46
2023-03-12T02:38:49.871Z,22.45
2023-03-12T02:39:49.865Z,22.45
2023-03-12T02:40:49.860Z,22.45
2023-03-12T02:41:49.855Z,22.45
2023-03-12T02:42:49.838Z,22.45
2023-03-12T02:43:49.833Z,22.44
2023-03-12T02:44:50.810Z,22.44
2023-03-12T02:45:49.823Z,22.44
2023-03-12T02:46:49.834Z,22.45
2023-03-12T02:47:49.800Z,22.45
2023-03-12T02:48:49.790Z,22.45
2023-03-12T02:49:49.779Z,22.45
2023-03-12T02:50:49.766Z,22.44
2023-03-12T02:51:49.756Z,22.45
2023-03-12T02:52:49.754Z,22.45
2023-03-12T02:53:49.736Z,22.44
2023-03-12T02:54:49.737Z,22.44
2023-03-12T02:55:49.724Z,22.45
2023-03-12T02:56:49.716Z,22.45
2023-03-12T02:57:49.701Z,22.45
2023-03-12T02:58:49.691Z,22.45
2023-03-12T02:59:49.685Z,22.45
2023-03-12T03:00:49.672Z,22.45
2023-03-12T03:01:49.664Z,22.44
2023-03-12T03:02:49.681Z,22.44
2023-03-12T03:03:49.747Z,22.44
2023-03-12T03:04:49.640Z,22.44
2023-03-12T03:05:49.626Z,22.44
2023-03-12T03:06:49.612Z,22.44
2023-03-12T03:07:49.612Z,22.45
2023-03-12T03:08:49.604Z,22.44
2023-03-12T03:09:49.603Z,22.45
2023-03-12T03:10:49.585Z,22.45
2023-03-12T03:11:49.574Z,22.45
2023-03-12T03:12:49.564Z,22.44
2023-03-12T03:13:49.555Z,22.44
2023-03-12T03:14:49.549Z,22.44
2023-03-12T03:15:49.572Z,22.44
2023-03-12T03:16:49.529Z,22.44
2023-03-12T03:17:49.528Z,22.43
2023-03-12T03:18:49.537Z,22.43
2023-03-12T03:19:49.499Z,22.43
2023-03-12T03:20:49.491Z,22.44
2023-03-12T03:21:49.482Z,22.43
2023-03-12T03:22:49.473Z,22.43
2023-03-12T03:23:49.467Z,22.43
2023-03-12T03:24:49.461Z,22.43
2023-03-12T03:25:49.461Z,22.43
2023-03-12T03:26:49.460Z,22.43
2023-03-12T03:27:49.433Z,22.44
2023-03-12T03:28:49.452Z,22.43
2023-03-12T03:30:49.437Z,22.43
2023-03-12T03:31:49.397Z,22.43
2023-03-12T03:32:49.428Z,22.43
2023-03-12T03:33:49.375Z,22.43
2023-03-12T03:34:49.390Z,22.42
2023-03-12T03:35:49.382Z,22.42
2023-03-12T03:36:49.355Z,22.43
2023-03-12T03:37:49.334Z,22.43
2023-03-12T03:38:49.330Z,22.43
2023-03-12T03:39:49.321Z,22.43
2023-03-12T03:40:49.312Z,22.42
2023-03-12T03:41:49.300Z,22.43
2023-03-12T03:42:49.300Z,22.42
2023-03-12T03:43:49.280Z,22.42
2023-03-12T03:44:49.270Z,22.42
2023-03-12T03:45:49.320Z,22.42
2023-03-12T03:46:49.251Z,22.42
2023-03-12T03:47:49.246Z,22.43
2023-03-12T03:48:49.228Z,22.42
2023-03-12T03:49:49.230Z,22.42
2023-03-12T03:50:49.249Z,22.42
2023-03-12T03:51:49.203Z,22.42
2023-03-12T03:52:49.212Z,22.42
2023-03-12T03:53:49.197Z,22.42
2023-03-12T03:54:49.179Z,22.43
2023-03-12T03:55:49.169Z,22.42
2023-03-12T03:56:49.160Z,22.43
2023-03-12T03:57:49.149Z,22.42
2023-03-12T03:58:49.158Z,22.42
2023-03-12T03:59:49.134Z,22.42
2023-03-12T04:00:49.131Z,22.43
2023-03-12T04:01:49.121Z,22.42
2023-03-12T04:02:49.104Z,22.42
2023-03-12T04:03:49.095Z,22.43
2023-03-12T04:04:49.089Z,22.42
2023-03-12T04:05:49.176Z,22.41
2023-03-12T04:06:49.094Z,22.41
2023-03-12T04:07:49.058Z,22.42
2023-03-12T04:08:49.047Z,22.43
2023-03-12T04:09:49.041Z,22.42
2023-03-12T04:10:49.035Z,22.41
2023-03-12T04:11:49.034Z,22.41
2023-03-12T04:12:49.011Z,22.42
2023-03-12T04:13:49.003Z,22.42
2023-03-12T04:14:48.997Z,22.42
2023-03-12T04:15:49.044Z,22.41
2023-03-12T04:16:48.980Z,22.42
2023-03-12T04:17:49.002Z,22.42
2023-03-12T04:18:48.952Z,22.41
2023-03-12T04:19:48.944Z,22.41
2023-03-12T04:20:48.942Z,22.42
2023-03-12T04:21:48.932Z,22.41
2023-03-12T04:22:48.952Z,22.41
2023-03-12T04:23:48.910Z,22.41
2023-03-12T04:24:48.907Z,22.41
2023-03-12T04:25:48.904Z,22.41
2023-03-12T04:26:48.884Z,22.42
2023-03-12T04:27:48.874Z,22.41
2023-03-12T04:28:48.863Z,22.41
2023-03-12T04:29:48.855Z,22.41
2023-03-12T04:30:48.849Z,22.41
2023-03-12T04:31:48.941Z,22.41
2023-03-12T04:32:48.907Z,22.41
2023-03-12T04:33:48.817Z,22.41
2023-03-12T04:34:48.807Z,22.41
2023-03-12T04:35:48.813Z,22.41
2023-03-12T04:36:48.800Z,22.41
2023-03-12T04:37:48.791Z,22.41
2023-03-12T04:38:48.804Z,22.42
2023-03-12T04:39:48.760Z,22.41
2023-03-12T04:40:48.754Z,22.40
2023-03-12T04:41:48.744Z,22.41
2023-03-12T04:42:48.744Z,22.41
2023-03-12T04:43:48.736Z,22.41
2023-03-12T04:44:48.726Z,22.41
2023-03-12T04:45:48.716Z,22.41
2023-03-12T04:46:48.730Z,22.41
2023-03-12T04:47:48.693Z,22.41
2023-03-12T04:48:48.684Z,22.40
2023-03-12T04:49:48.678Z,22.41
2023-03-12T04:50:48.676Z,22.40
2023-03-12T04:51:48.662Z,22.40
2023-03-12T04:52:48.654Z,22.40
2023-03-12T04:53:48.702Z,22.41
2023-03-12T04:54:48.658Z,22.40
2023-03-12T04:55:48.620Z,22.40
2023-03-12T04:56:48.614Z,22.41
2023-03-12T04:57:48.606Z,22.40
2023-03-12T04:58:48.601Z,22.39
2023-03-12T04:59:48.590Z,22.40
2023-03-12T05:00:48.591Z,22.40
2023-03-12T05:01:48.568Z,22.40
2023-03-12T05:02:48.589Z,22.40
2023-03-12T05:03:48.577Z,22.40
2023-03-12T05:04:48.544Z,22.40
2023-03-12T05:05:48.535Z,22.40
2023-03-12T05:06:48.524Z,22.40
2023-03-12T05:07:48.517Z,22.40
2023-03-12T05:08:48.508Z,22.40
2023-03-12T05:09:48.493Z,22.40
2023-03-12T05:10:48.522Z,22.39
2023-03-12T05:11:48.501Z,22.40
2023-03-12T05:12:48.469Z,22.40
2023-03-12T05:13:48.459Z,22.40
2023-03-12T05:14:48.454Z,22.39
2023-03-12T05:15:48.458Z,22.39
2023-03-12T05:16:48.442Z,22.39
2023-03-12T05:17:48.423Z,22.40
2023-03-12T05:18:48.413Z,22.40
2023-03-12T05:19:48.412Z,22.40
2023-03-12T05:20:48.400Z,22.39
2023-03-12T05:21:48.393Z,22.39
2023-03-12T05:22:48.382Z,22.39
2023-03-12T05:23:48.367Z,22.39
2023-03-12T05:24:48.363Z,22.39
2023-03-12T05:25:48.349Z,22.40
2023-03-12T05:26:48.393Z,22.39
2023-03-12T05:27:48.352Z,22.39
2023-03-12T05:28:48.327Z,22.39
2023-03-12T05:29:48.319Z,22.39
2023-03-12T05:30:48.312Z,22.39
2023-03-12T05:31:48.344Z,22.39
2023-03-12T05:32:48.408Z,22.39
2023-03-12T05:33:48.659Z,22.39
2023-03-12T05:34:48.310Z,22.39
2023-03-12T05:35:48.342Z,22.38
2023-03-12T05:36:48.285Z,22.39
2023-03-12T05:37:48.280Z,22.39
2023-03-12T05:38:48.279Z,22.40
2023-03-12T05:39:48.257Z,22.39
2023-03-12T05:40:48.241Z,22.39
2023-03-12T05:41:48.234Z,22.38
2023-03-12T05:42:48.261Z,22.39
2023-03-12T05:43:48.225Z,22.38
2023-03-12T05:44:48.211Z,22.39
2023-03-12T05:45:48.245Z,22.39
2023-03-12T05:46:48.183Z,22.39
2023-03-12T05:47:48.181Z,22.39
2023-03-12T05:48:48.179Z,22.39
2023-03-12T05:49:48.168Z,22.39
2023-03-12T05:50:48.160Z,22.38
2023-03-12T05:51:48.149Z,22.38
2023-03-12T05:52:48.128Z,22.39
2023-03-12T05:53:48.112Z,22.39
2023-03-12T05:54:48.108Z,22.39
2023-03-12T05:55:48.101Z,22.39
2023-03-12T05:56:48.094Z,22.38
2023-03-12T05:57:48.079Z,22.39
2023-03-12T05:58:48.098Z,22.39
2023-03-12T05:59:48.096Z,22.39
2023-03-12T06:00:48.045Z,22.39
2023-03-12T06:01:48.131Z,22.38
2023-03-12T06:02:48.035Z,22.39
2023-03-12T06:03:48.160Z,22.38
2023-03-12T06:04:48.022Z,22.38
2023-03-12T06:05:48.039Z,22.38
2023-03-12T06:06:48.011Z,22.38
2023-03-12T06:07:47.985Z,22.38
2023-03-12T06:08:47.976Z,22.38
2023-03-12T06:09:47.967Z,22.38
2023-03-12T06:10:47.966Z,22.38
2023-03-12T06:11:47.965Z,22.38
2023-03-12T06:12:47.949Z,22.38
2023-03-12T06:13:47.952Z,22.37
2023-03-12T06:14:47.988Z,22.38
2023-03-12T06:15:47.921Z,22.37
2023-03-12T06:16:48.000Z,22.37
2023-03-12T06:17:47.897Z,22.37
2023-03-12T06:18:47.903Z,22.38
2023-03-12T06:19:47.883Z,22.37
2023-03-12T06:20:47.871Z,22.38
2023-03-12T06:21:47.879Z,22.38
2023-03-12T06:22:47.856Z,22.37
2023-03-12T06:23:47.845Z,22.37
2023-03-12T06:24:47.835Z,22.37
2023-03-12T06:25:47.821Z,22.38
2023-03-12T06:26:47.831Z,22.38
2023-03-12T06:27:47.817Z,22.38
2023-03-12T06:28:47.803Z,22.38
2023-03-12T06:29:47.791Z,22.38
2023-03-12T06:30:47.805Z,22.38
2023-03-12T06:31:47.890Z,22.38
2023-03-12T06:32:47.841Z,22.38
2023-03-12T06:33:47.757Z,22.37
2023-03-12T06:34:47.737Z,22.39
2023-03-12T06:35:47.800Z,22.37
2023-03-12T06:36:47.719Z,22.38
2023-03-12T06:37:47.705Z,22.38
2023-03-12T06:38:47.702Z,22.38
2023-03-12T06:39:47.688Z,22.36
2023-03-12T06:40:47.680Z,22.37
2023-03-12T06:41:47.668Z,22.37
2023-03-12T06:42:47.682Z,22.37
2023-03-12T06:43:47.674Z,22.38
2023-03-12T06:44:47.650Z,22.38
2023-03-12T06:45:47.628Z,22.37
2023-03-12T06:46:47.766Z,22.38
2023-03-12T06:47:47.635Z,22.37
2023-03-12T06:48:47.608Z,22.37
2023-03-12T06:49:47.615Z,22.38
2023-03-12T06:50:47.588Z,22.37
2023-03-12T06:51:47.584Z,22.37
2023-03-12T06:52:47.573Z,22.37
2023-03-12T06:53:47.563Z,22.36
2023-03-12T06:54:47.560Z,22.37
2023-03-12T06:55:47.543Z,22.37
2023-03-12T06:56:47.546Z,22.37
2023-03-12T06:57:47.523Z,22.37
2023-03-12T06:58:47.512Z,22.37
2023-03-12T06:59:50.082Z,22.37
2023-03-12T07:00:47.499Z,22.37
2023-03-12T07:01:47.528Z,22.37
2023-03-12T07:02:47.522Z,22.37
2023-03-12T07:03:47.470Z,22.37
2023-03-12T07:04:47.581Z,22.37
2023-03-12T07:05:47.470Z,22.37
2023-03-12T07:06:47.441Z,22.37
2023-03-12T07:07:47.435Z,22.37
2023-03-12T07:08:47.424Z,22.38
2023-03-12T07:09:47.416Z,22.37
2023-03-12T07:10:47.409Z,22.37
2023-03-12T07:11:47.405Z,22.37
2023-03-12T07:12:47.394Z,22.37
2023-03-12T07:13:47.382Z,22.38
2023-03-12T07:14:47.377Z,22.38
2023-03-12T07:15:47.408Z,22.38
2023-03-12T07:16:47.366Z,22.39
2023-03-12T07:17:47.345Z,22.39
2023-03-12T07:18:47.382Z,22.38
2023-03-12T07:19:49.717Z,22.38
2023-03-12T07:20:47.326Z,22.38
2023-03-12T07:21:47.310Z,22.38
2023-03-12T07:22:47.314Z,22.37
2023-03-12T07:23:47.301Z,22.38
2023-03-12T07:24:47.292Z,22.37
2023-03-12T07:25:47.274Z,22.38
2023-03-12T07:26:47.266Z,22.38
2023-03-12T07:27:47.260Z,22.38
2023-03-12T07:28:47.250Z,22.38
2023-03-12T07:29:47.249Z,22.37
2023-03-12T07:30:47.233Z,22.38
2023-03-12T07:31:47.338Z,22.37
2023-03-12T07:32:47.256Z,22.38
2023-03-12T07:33:47.360Z,22.38
2023-03-12T07:34:47.222Z,22.38
2023-03-12T07:35:49.284Z,22.38
2023-03-12T07:36:47.421Z,22.38
2023-03-12T07:37:47.210Z,22.38
2023-03-12T07:38:47.157Z,22.38
2023-03-12T07:39:47.220Z,22.38
2023-03-12T07:40:47.874Z,22.39
2023-03-12T07:41:47.134Z,22.38
2023-03-12T07:42:47.116Z,22.38
2023-03-12T07:43:47.371Z,22.38
2023-03-12T07:44:47.185Z,22.37
2023-03-12T07:45:47.087Z,22.37
2023-03-12T07:46:47.216Z,22.37
2023-03-12T07:47:47.460Z,22.38
2023-03-12T07:48:47.450Z,22.37
2023-03-12T07:49:47.190Z,22.38
2023-03-12T07:50:47.070Z,22.38
2023-03-12T07:51:47.057Z,22.38
2023-03-12T07:52:47.025Z,22.38
2023-03-12T07:53:47.010Z,22.39
2023-03-12T07:54:47.105Z,22.38
2023-03-12T07:55:47.133Z,22.38
2023-03-12T07:56:47.064Z,22.38
2023-03-12T07:57:47.024Z,22.39
2023-03-12T07:58:47.173Z,22.38
2023-03-12T07:59:47.081Z,22.37
2023-03-12T08:00:46.960Z,22.39
2023-03-12T08:01:47.295Z,22.39
2023-03-12T08:02:47.347Z,22.39
2023-03-12T08:03:47.580Z,22.39
2023-03-12T08:04:47.030Z,22.39
2023-03-12T08:05:46.966Z,22.39
2023-03-12T08:06:46.973Z,22.40
2023-03-12T08:07:46.884Z,22.39
2023-03-12T08:08:46.901Z,22.40
2023-03-12T08:09:46.919Z,22.40
2023-03-12T08:10:46.862Z,22.40
2023-03-12T08:11:46.946Z,22.40
2023-03-12T08:12:46.843Z,22.40
2023-03-12T08:13:46.836Z,22.40
2023-03-12T08:14:46.981Z,22.40
2023-03-12T08:15:46.813Z,22.40
2023-03-12T08:16:46.933Z,22.41
2023-03-12T08:17:46.793Z,22.41
2023-03-12T08:18:46.800Z,22.40
2023-03-12T08:19:46.807Z,22.41
2023-03-12T08:20:46.791Z,22.42
2023-03-12T08:21:46.765Z,22.41
2023-03-12T08:22:46.788Z,22.42
2023-03-12T08:23:46.732Z,22.41
2023-03-12T08:24:46.733Z,22.41
2023-03-12T08:25:46.714Z,22.41
2023-03-12T08:26:46.713Z,22.41
2023-03-12T08:27:46.701Z,22.42
2023-03-12T08:28:46.695Z,22.41
2023-03-12T08:29:46.680Z,22.41
2023-03-12T08:30:46.669Z,22.41
2023-03-12T08:32:03.394Z,22.41
2023-03-12T08:32:46.678Z,22.40
2023-03-12T08:33:46.647Z,22.42
2023-03-12T08:34:46.639Z,22.41
2023-03-12T08:35:46.666Z,22.42
2023-03-12T08:36:46.618Z,22.42
2023-03-12T08:37:46.617Z,22.42
2023-03-12T08:38:46.628Z,22.42
2023-03-12T08:39:46.593Z,22.42
2023-03-12T08:40:46.580Z,22.41
2023-03-12T08:41:46.569Z,22.41
2023-03-12T08:42:46.579Z,22.41
2023-03-12T08:43:46.551Z,22.42
2023-03-12T08:44:46.558Z,22.42
2023-03-12T08:45:46.599Z,22.42
2023-03-12T08:46:46.529Z,22.42
2023-03-12T08:47:46.517Z,22.41
2023-03-12T08:48:46.508Z,22.42
2023-03-12T08:49:46.504Z,22.41
2023-03-12T08:50:46.499Z,22.41
2023-03-12T08:51:46.496Z,22.41
2023-03-12T08:52:46.471Z,22.42
2023-03-12T08:53:46.484Z,22.42
2023-03-12T08:54:47.006Z,22.41
2023-03-12T08:55:46.444Z,22.43
2023-03-12T08:56:46.442Z,22.41
2023-03-12T08:57:46.429Z,22.41
2023-03-12T08:58:46.431Z,22.42
2023-03-12T08:59:46.416Z,22.41
2023-03-12T09:00:46.396Z,22.41
2023-03-12T09:01:46.400Z,22.41
2023-03-12T09:02:46.481Z,22.41
2023-03-12T09:03:46.377Z,22.40
2023-03-12T09:04:46.416Z,22.40
2023-03-12T09:05:46.355Z,22.40
2023-03-12T09:06:46.350Z,22.40
2023-03-12T09:07:46.353Z,22.40
2023-03-12T09:08:46.340Z,22.40
2023-03-12T09:09:46.317Z,22.40
2023-03-12T09:10:46.336Z,22.40
2023-03-12T09:11:46.304Z,22.41
2023-03-12T09:12:46.301Z,22.40
2023-03-12T09:14:33.339Z,22.41
2023-03-12T09:15:03.937Z,22.40
2023-03-12T09:15:46.279Z,22.40
2023-03-12T09:16:47.040Z,22.40
2023-03-12T09:17:46.245Z,22.40
2023-03-12T09:18:46.241Z,22.40
2023-03-12T09:19:46.228Z,22.41
2023-03-12T09:20:46.219Z,22.41
2023-03-12T09:21:46.238Z,22.42
2023-03-12T09:22:46.207Z,22.42
2023-03-12T09:23:46.195Z,22.42
2023-03-12T09:24:46.180Z,22.42
2023-03-12T09:25:46.174Z,22.43
2023-03-12T09:26:46.181Z,22.43
2023-03-12T09:27:46.168Z,22.44
2023-03-12T09:28:46.148Z,22.43
2023-03-12T09:29:59.603Z,22.43
2023-03-12T09:30:46.157Z,22.43
2023-03-12T09:31:46.116Z,22.42
2023-03-12T09:32:46.187Z,22.43
2023-03-12T09:33:46.093Z,22.43
2023-03-12T09:34:46.116Z,22.43
2023-03-12T09:35:46.077Z,22.44
2023-03-12T09:36:46.063Z,22.44
2023-03-12T09:37:46.059Z,22.44
2023-03-12T09:38:46.056Z,22.44
2023-03-12T09:39:46.042Z,22.44
2023-03-12T09:40:46.036Z,22.45
2023-03-12T09:41:46.019Z,22.45
2023-03-12T09:42:47.519Z,22.45
2023-03-12T09:43:46.150Z,22.44
2023-03-12T09:44:46.138Z,22.45
2023-03-12T09:45:46.169Z,22.45
2023-03-12T09:46:46.122Z,22.46
2023-03-12T09:47:46.111Z,22.45
2023-03-12T09:48:47.652Z,22.46
2023-03-12T09:49:46.232Z,22.45
2023-03-12T09:50:46.231Z,22.46
2023-03-12T09:51:46.219Z,22.46
2023-03-12T09:52:46.204Z,22.46
2023-03-12T09:53:46.193Z,22.46
2023-03-12T09:54:47.554Z,22.46
2023-03-12T09:55:46.188Z,22.46
2023-03-12T09:56:46.181Z,22.46
2023-03-12T09:57:46.168Z,22.46
2023-03-12T09:58:46.175Z,22.46
2023-03-12T09:59:46.146Z,22.46
2023-03-12T10:00:47.613Z,22.47
2023-03-12T10:01:46.205Z,22.46
2023-03-12T10:02:46.221Z,22.46
2023-03-12T10:03:46.184Z,22.47
2023-03-12T10:04:59.078Z,22.48
2023-03-12T10:05:46.170Z,22.47
2023-03-12T10:06:47.287Z,22.47
2023-03-12T10:07:46.154Z,22.48
2023-03-12T10:08:46.144Z,22.47
2023-03-12T10:09:46.126Z,22.48
2023-03-12T10:10:46.123Z,22.48
2023-03-12T10:11:46.111Z,22.48
2023-03-12T10:12:47.598Z,22.49
2023-03-12T10:13:46.216Z,22.49
2023-03-12T10:14:46.218Z,22.49
2023-03-12T10:15:46.235Z,22.50
2023-03-12T10:16:46.181Z,22.50
2023-03-12T10:17:46.237Z,22.51
2023-03-12T10:18:48.259Z,22.51
2023-03-12T10:19:46.142Z,22.51
2023-03-12T10:20:46.144Z,22.51
2023-03-12T10:21:46.139Z,22.52
2023-03-12T10:22:46.116Z,22.52
2023-03-12T10:23:46.122Z,22.53
2023-03-12T10:24:46.107Z,22.52
2023-03-12T10:25:46.109Z,22.52
2023-03-12T10:26:46.091Z,22.53
2023-03-12T10:27:46.068Z,22.53
2023-03-12T10:28:46.063Z,22.52
2023-03-12T10:29:46.058Z,22.52
2023-03-12T10:30:46.101Z,22.52
2023-03-12T10:31:46.037Z,22.53
2023-03-12T10:32:46.158Z,22.52
2023-03-12T10:33:46.029Z,22.52
2023-03-12T10:34:46.005Z,22.52
2023-03-12T10:35:46.109Z,22.53
2023-03-12T10:36:45.991Z,22.52
2023-03-12T10:37:46.035Z,22.52
2023-03-12T10:38:45.978Z,22.52
2023-03-12T10:39:45.973Z,22.52
2023-03-12T10:40:45.971Z,22.51
2023-03-12T10:41:45.946Z,22.51
2023-03-12T10:42:45.931Z,22.51
2023-03-12T10:43:45.924Z,22.52
2023-03-12T10:44:45.916Z,22.51
2023-03-12T10:45:45.918Z,22.52
2023-03-12T10:46:45.941Z,22.51
2023-03-12T10:47:45.889Z,22.50
2023-03-12T10:48:45.881Z,22.51
2023-03-12T10:49:45.877Z,22.50
2023-03-12T10:50:45.861Z,22.51
2023-03-12T10:51:45.850Z,22.50
2023-03-12T10:52:45.843Z,22.50
2023-03-12T10:53:45.837Z,22.51
2023-03-12T10:54:45.824Z,22.51
2023-03-12T10:55:45.818Z,22.52
2023-03-12T10:56:45.810Z,22.52
2023-03-12T10:57:45.799Z,22.52
2023-03-12T10:58:45.782Z,22.53
2023-03-12T10:59:45.782Z,22.53
2023-03-12T11:00:45.768Z,22.54
2023-03-12T11:01:45.933Z,22.54
2023-03-12T11:02:45.791Z,22.54
2023-03-12T11:03:45.740Z,22.55
2023-03-12T11:04:45.729Z,22.54
2023-03-12T11:05:45.772Z,22.54
2023-03-12T11:06:45.711Z,22.54
2023-03-12T11:07:45.703Z,22.53
2023-03-12T11:08:45.700Z,22.53
2023-03-12T11:09:45.686Z,22.54
2023-03-12T11:10:45.688Z,22.53
2023-03-12T11:11:45.666Z,22.53
2023-03-12T11:12:45.657Z,22.52
2023-03-12T11:13:45.656Z,22.52
2023-03-12T11:14:45.639Z,22.51
2023-03-12T11:15:45.665Z,22.51
2023-03-12T11:16:45.622Z,22.51
2023-03-12T11:17:45.623Z,22.51
2023-03-12T11:18:45.626Z,22.50
2023-03-12T11:19:45.596Z,22.51
2023-03-12T11:20:45.586Z,22.50
2023-03-12T11:21:45.575Z,22.50
2023-03-12T11:22:45.569Z,22.50
2023-03-12T11:23:45.561Z,22.49
2023-03-12T11:24:45.557Z,22.49
2023-03-12T11:25:45.534Z,22.49
2023-03-12T11:26:45.528Z,22.49
2023-03-12T11:27:45.519Z,22.48
2023-03-12T11:28:45.509Z,22.49
2023-03-12T11:29:45.554Z,22.49
2023-03-12T11:30:45.522Z,22.49
2023-03-12T11:31:47.212Z,22.49
2023-03-12T11:32:45.654Z,22.48
2023-03-12T11:33:45.463Z,22.48
2023-03-12T11:34:45.485Z,22.48
2023-03-12T11:35:45.498Z,22.47
2023-03-12T11:36:45.439Z,22.48
2023-03-12T11:37:45.444Z,22.48
2023-03-12T11:38:45.423Z,22.48
2023-03-12T11:39:45.416Z,22.47
2023-03-12T11:40:45.401Z,22.47
2023-03-12T11:41:45.394Z,22.47
2023-03-12T11:42:45.393Z,22.46
2023-03-12T11:43:45.376Z,22.47
2023-03-12T11:44:45.361Z,22.48
2023-03-12T11:45:45.363Z,22.48
2023-03-12T11:46:45.405Z,22.47
2023-03-12T11:47:45.408Z,22.47
2023-03-12T11:48:45.406Z,22.47
2023-03-12T11:49:46.164Z,22.48
2023-03-12T11:50:45.329Z,22.46
2023-03-12T11:51:45.301Z,22.47
2023-03-12T11:52:45.298Z,22.48
2023-03-12T11:53:45.280Z,22.47
2023-03-12T11:54:45.280Z,22.47
2023-03-12T11:55:45.264Z,22.48
2023-03-12T11:56:45.259Z,22.48
2023-03-12T11:57:45.250Z,22.48
2023-03-12T11:58:45.238Z,22.47
2023-03-12T11:59:45.232Z,22.47
2023-03-12T12:00:47.605Z,22.47
2023-03-12T12:01:46.064Z,22.46
2023-03-12T12:02:45.198Z,22.46
2023-03-12T12:03:45.194Z,22.47
2023-03-12T12:04:45.180Z,22.47
2023-03-12T12:05:45.185Z,22.46
2023-03-12T12:06:46.968Z,22.47
2023-03-12T12:07:45.155Z,22.47
2023-03-12T12:08:45.156Z,22.47
2023-03-12T12:09:45.140Z,22.47
2023-03-12T12:10:45.137Z,22.48
2023-03-12T12:11:45.122Z,22.47
2023-03-12T12:12:45.113Z,22.47
2023-03-12T12:13:45.101Z,22.48
2023-03-12T12:14:45.103Z,22.47
2023-03-12T12:15:45.096Z,22.48
2023-03-12T12:16:45.138Z,22.46
2023-03-12T12:17:45.069Z,22.46
2023-03-12T12:18:45.057Z,22.46
2023-03-12T12:19:45.060Z,22.46
2023-03-12T12:20:45.048Z,22.46
2023-03-12T12:21:45.034Z,22.46
2023-03-12T12:22:45.059Z,22.46
2023-03-12T12:23:45.023Z,22.46
2023-03-12T12:24:45.000Z,22.46
2023-03-12T12:25:45.000Z,22.46
2023-03-12T12:26:44.985Z,22.46
2023-03-12T12:27:44.979Z,22.46
2023-03-12T12:28:44.971Z,22.45
2023-03-12T12:29:44.960Z,22.46
2023-03-12T12:30:44.956Z,22.45
2023-03-12T12:31:44.996Z,22.45
2023-03-12T12:32:45.101Z,22.45
2023-03-12T12:33:44.941Z,22.44
2023-03-12T12:34:44.917Z,22.44
2023-03-12T12:35:44.933Z,22.44
2023-03-12T12:36:44.898Z,22.44
2023-03-12T12:37:44.888Z,22.44
2023-03-12T12:38:44.905Z,22.44
2023-03-12T12:39:47.065Z,22.44
2023-03-12T12:40:44.854Z,22.43
2023-03-12T12:41:44.855Z,22.44
2023-03-12T12:42:44.837Z,22.44
2023-03-12T12:43:44.842Z,22.44
2023-03-12T12:44:44.826Z,22.43
2023-03-12T12:45:44.863Z,22.44
2023-03-12T12:46:44.798Z,22.44
2023-03-12T12:47:44.795Z,22.44
2023-03-12T12:48:44.783Z,22.44
2023-03-12T12:49:44.776Z,22.44
2023-03-12T12:50:44.765Z,22.45
2023-03-12T12:51:44.757Z,22.44
2023-03-12T12:52:44.757Z,22.45
2023-03-12T12:53:44.736Z,22.44
2023-03-12T12:54:44.754Z,22.45
2023-03-12T12:55:44.715Z,22.45
2023-03-12T12:56:44.709Z,22.45
2023-03-12T12:57:44.729Z,22.45
2023-03-12T12:58:44.695Z,22.45
2023-03-12T12:59:44.717Z,22.44
2023-03-12T13:00:44.677Z,22.45
2023-03-12T13:01:44.801Z,22.45
2023-03-12T13:02:44.661Z,22.45
2023-03-12T13:03:44.749Z,22.44
2023-03-12T13:04:44.640Z,22.45
2023-03-12T13:05:44.638Z,22.45
2023-03-12T13:06:44.621Z,22.45
2023-03-12T13:07:44.620Z,22.45
2023-03-12T13:08:44.621Z,22.44
2023-03-12T13:09:44.619Z,22.44
2023-03-12T13:10:57.116Z,22.44
2023-03-12T13:11:44.577Z,22.43
2023-03-12T13:12:44.570Z,22.44
2023-03-12T13:13:44.565Z,22.44
2023-03-12T13:14:44.598Z,22.45
2023-03-12T13:15:44.626Z,22.44
2023-03-12T13:16:44.528Z,22.44
2023-03-12T13:17:44.519Z,22.44
2023-03-12T13:18:44.548Z,22.44
2023-03-12T13:19:52.023Z,22.44
2023-03-12T13:20:44.499Z,22.44
2023-03-12T13:21:44.482Z,22.44
2023-03-12T13:22:44.480Z,22.44
2023-03-12T13:23:44.467Z,22.44
2023-03-12T13:24:44.464Z,22.44
2023-03-12T13:25:44.451Z,22.44
2023-03-12T13:26:44.462Z,22.44
2023-03-12T13:27:44.431Z,22.44
2023-03-12T13:28:44.586Z,22.44
2023-03-12T13:29:44.418Z,22.44
2023-03-12T13:30:44.468Z,22.44
2023-03-12T13:31:44.392Z,22.44
2023-03-12T13:32:44.437Z,22.44
2023-03-12T13:33:44.375Z,22.43
2023-03-12T13:34:44.454Z,22.44
2023-03-12T13:35:44.386Z,22.44
2023-03-12T13:36:45.100Z,22.44
2023-03-12T13:37:44.337Z,22.43
2023-03-12T13:38:44.327Z,22.44
2023-03-12T13:39:44.319Z,22.44
2023-03-12T13:40:44.310Z,22.43